sensor_id;sensor_type;location;lat;lon;timestamp;pressure;altitude;pressure_sealevel;temperature
19644;BMP180;9970;-36.854;174.870;2023-08-01T00:01:59;101533.00;;;15.80
19644;BMP180;9970;-36.854;174.870;2023-08-01T00:04:33;101527.00;;;15.90
19644;BMP180;9970;-36.854;174.870;2023-08-01T00:07:06;101523.00;;;15.90
19644;BMP180;9970;-36.854;174.870;2023-08-01T00:09:38;101512.00;;;16.00
19644;BMP180;9970;-36.854;174.870;2023-08-01T00:12:15;101498.00;;;16.00
19644;BMP180;9970;-36.854;174.870;2023-08-01T00:14:49;101495.00;;;16.10
19644;BMP180;9970;-36.854;174.870;2023-08-01T00:17:21;101496.00;;;16.10
19644;BMP180;9970;-36.854;174.870;2023-08-01T00:19:55;101490.00;;;16.10
19644;BMP180;9970;-36.854;174.870;2023-08-01T00:22:28;101487.00;;;16.10
19644;BMP180;9970;-36.854;174.870;2023-08-01T00:25:01;101487.00;;;16.10
19644;BMP180;9970;-36.854;174.870;2023-08-01T00:27:34;101485.00;;;16.10
19644;BMP180;9970;-36.854;174.870;2023-08-01T00:30:09;101472.00;;;16.10
19644;BMP180;9970;-36.854;174.870;2023-08-01T00:32:43;101474.00;;;16.10
19644;BMP180;9970;-36.854;174.870;2023-08-01T00:35:21;101475.00;;;16.10
19644;BMP180;9970;-36.854;174.870;2023-08-01T00:37:54;101464.00;;;16.10
19644;BMP180;9970;-36.854;174.870;2023-08-01T00:40:34;101469.00;;;16.10
19644;BMP180;9970;-36.854;174.870;2023-08-01T00:43:07;101463.00;;;16.10
19644;BMP180;9970;-36.854;174.870;2023-08-01T00:45:43;101465.00;;;16.10
19644;BMP180;9970;-36.854;174.870;2023-08-01T00:48:17;101461.00;;;16.10
19644;BMP180;9970;-36.854;174.870;2023-08-01T00:50:50;101454.00;;;16.10
19644;BMP180;9970;-36.854;174.870;2023-08-01T00:53:26;101448.00;;;16.10
19644;BMP180;9970;-36.854;174.870;2023-08-01T00:56:02;101446.00;;;16.10
19644;BMP180;9970;-36.854;174.870;2023-08-01T00:58:35;101442.00;;;16.10
19644;BMP180;9970;-36.854;174.870;2023-08-01T01:01:09;101435.00;;;16.10
19644;BMP180;9970;-36.854;174.870;2023-08-01T01:03:42;101434.00;;;16.10
19644;BMP180;9970;-36.854;174.870;2023-08-01T01:09:19;101440.00;;;16.20
19644;BMP180;9970;-36.854;174.870;2023-08-01T01:11:52;101433.00;;;16.20
19644;BMP180;9970;-36.854;174.870;2023-08-01T01:14:28;101426.00;;;16.20
19644;BMP180;9970;-36.854;174.870;2023-08-01T01:17:01;101420.00;;;16.20
19644;BMP180;9970;-36.854;174.870;2023-08-01T01:19:35;101419.00;;;16.20
19644;BMP180;9970;-36.854;174.870;2023-08-01T01:22:08;101413.00;;;16.20
19644;BMP180;9970;-36.854;174.870;2023-08-01T01:24:42;101409.00;;;16.20
19644;BMP180;9970;-36.854;174.870;2023-08-01T01:27:16;101405.00;;;16.20
19644;BMP180;9970;-36.854;174.870;2023-08-01T01:29:50;101402.00;;;16.20
19644;BMP180;9970;-36.854;174.870;2023-08-01T01:32:24;101400.00;;;16.20
19644;BMP180;9970;-36.854;174.870;2023-08-01T01:34:57;101400.00;;;16.20
19644;BMP180;9970;-36.854;174.870;2023-08-01T01:37:30;101399.00;;;16.20
19644;BMP180;9970;-36.854;174.870;2023-08-01T01:40:03;101401.00;;;16.10
19644;BMP180;9970;-36.854;174.870;2023-08-01T01:42:37;101408.00;;;16.10
19644;BMP180;9970;-36.854;174.870;2023-08-01T01:45:10;101396.00;;;16.20
19644;BMP180;9970;-36.854;174.870;2023-08-01T01:47:43;101405.00;;;16.20
19644;BMP180;9970;-36.854;174.870;2023-08-01T01:50:19;101398.00;;;16.20
19644;BMP180;9970;-36.854;174.870;2023-08-01T01:52:52;101390.00;;;16.20
19644;BMP180;9970;-36.854;174.870;2023-08-01T01:55:28;101392.00;;;16.20
19644;BMP180;9970;-36.854;174.870;2023-08-01T01:58:01;101396.00;;;16.20
19644;BMP180;9970;-36.854;174.870;2023-08-01T02:00:34;101387.00;;;16.20
19644;BMP180;9970;-36.854;174.870;2023-08-01T02:03:07;101392.00;;;16.20
19644;BMP180;9970;-36.854;174.870;2023-08-01T02:05:44;101387.00;;;16.20
19644;BMP180;9970;-36.854;174.870;2023-08-01T02:08:17;101383.00;;;16.20
19644;BMP180;9970;-36.854;174.870;2023-08-01T02:10:50;101381.00;;;16.20
19644;BMP180;9970;-36.854;174.870;2023-08-01T02:13:23;101390.00;;;16.10
19644;BMP180;9970;-36.854;174.870;2023-08-01T02:15:56;101378.00;;;16.10
19644;BMP180;9970;-36.854;174.870;2023-08-01T02:18:29;101378.00;;;16.10
19644;BMP180;9970;-36.854;174.870;2023-08-01T02:21:02;101380.00;;;16.10
19644;BMP180;9970;-36.854;174.870;2023-08-01T02:23:35;101383.00;;;16.10
19644;BMP180;9970;-36.854;174.870;2023-08-01T02:26:12;101386.00;;;16.10
19644;BMP180;9970;-36.854;174.870;2023-08-01T02:28:45;101387.00;;;16.20
19644;BMP180;9970;-36.854;174.870;2023-08-01T02:31:18;101390.00;;;16.20
19644;BMP180;9970;-36.854;174.870;2023-08-01T02:33:56;101384.00;;;16.20
19644;BMP180;9970;-36.854;174.870;2023-08-01T02:36:29;101379.00;;;16.20
19644;BMP180;9970;-36.854;174.870;2023-08-01T02:39:02;101387.00;;;16.20
19644;BMP180;9970;-36.854;174.870;2023-08-01T02:41:39;101388.00;;;16.20
19644;BMP180;9970;-36.854;174.870;2023-08-01T02:44:12;101392.00;;;16.20
19644;BMP180;9970;-36.854;174.870;2023-08-01T02:46:45;101380.00;;;16.20
19644;BMP180;9970;-36.854;174.870;2023-08-01T02:49:18;101378.00;;;16.20
19644;BMP180;9970;-36.854;174.870;2023-08-01T02:51:51;101382.00;;;16.20
19644;BMP180;9970;-36.854;174.870;2023-08-01T02:54:24;101381.00;;;16.20
19644;BMP180;9970;-36.854;174.870;2023-08-01T02:56:57;101372.00;;;16.20
19644;BMP180;9970;-36.854;174.870;2023-08-01T02:59:30;101380.00;;;16.10
19644;BMP180;9970;-36.854;174.870;2023-08-01T03:02:04;101377.00;;;16.10
19644;BMP180;9970;-36.854;174.870;2023-08-01T03:04:37;101389.00;;;16.10
19644;BMP180;9970;-36.854;174.870;2023-08-01T03:07:11;101378.00;;;16.10
19644;BMP180;9970;-36.854;174.870;2023-08-01T03:09:44;101381.00;;;16.10
19644;BMP180;9970;-36.854;174.870;2023-08-01T03:12:17;101388.00;;;16.20
19644;BMP180;9970;-36.854;174.870;2023-08-01T03:14:51;101388.00;;;16.10
19644;BMP180;9970;-36.854;174.870;2023-08-01T03:17:24;101378.00;;;16.10
19644;BMP180;9970;-36.854;174.870;2023-08-01T03:19:57;101378.00;;;16.10
19644;BMP180;9970;-36.854;174.870;2023-08-01T03:22:30;101385.00;;;16.10
19644;BMP180;9970;-36.854;174.870;2023-08-01T03:25:03;101378.00;;;16.10
19644;BMP180;9970;-36.854;174.870;2023-08-01T03:27:37;101385.00;;;16.10
19644;BMP180;9970;-36.854;174.870;2023-08-01T03:30:10;101387.00;;;16.10
19644;BMP180;9970;-36.854;174.870;2023-08-01T03:32:43;101379.00;;;16.10
19644;BMP180;9970;-36.854;174.870;2023-08-01T03:35:17;101390.00;;;16.10
19644;BMP180;9970;-36.854;174.870;2023-08-01T03:37:50;101388.00;;;16.10
19644;BMP180;9970;-36.854;174.870;2023-08-01T03:40:24;101381.00;;;16.10
19644;BMP180;9970;-36.854;174.870;2023-08-01T03:42:57;101389.00;;;16.00
19644;BMP180;9970;-36.854;174.870;2023-08-01T03:45:30;101387.00;;;16.00
19644;BMP180;9970;-36.854;174.870;2023-08-01T03:48:03;101381.00;;;16.00
19644;BMP180;9970;-36.854;174.870;2023-08-01T03:50:37;101381.00;;;15.90
19644;BMP180;9970;-36.854;174.870;2023-08-01T03:53:10;101381.00;;;15.90
19644;BMP180;9970;-36.854;174.870;2023-08-01T03:55:46;101388.00;;;15.90
19644;BMP180;9970;-36.854;174.870;2023-08-01T03:58:20;101380.00;;;15.80
19644;BMP180;9970;-36.854;174.870;2023-08-01T04:00:53;101381.00;;;15.80
19644;BMP180;9970;-36.854;174.870;2023-08-01T04:03:26;101379.00;;;15.80
19644;BMP180;9970;-36.854;174.870;2023-08-01T04:05:59;101379.00;;;15.70
19644;BMP180;9970;-36.854;174.870;2023-08-01T04:08:32;101377.00;;;15.70
19644;BMP180;9970;-36.854;174.870;2023-08-01T04:11:05;101375.00;;;15.70
19644;BMP180;9970;-36.854;174.870;2023-08-01T04:13:38;101375.00;;;15.70
19644;BMP180;9970;-36.854;174.870;2023-08-01T04:16:11;101377.00;;;15.70
19644;BMP180;9970;-36.854;174.870;2023-08-01T04:18:44;101369.00;;;15.70
19644;BMP180;9970;-36.854;174.870;2023-08-01T04:21:16;101371.00;;;15.70
19644;BMP180;9970;-36.854;174.870;2023-08-01T04:23:54;101371.00;;;15.70
19644;BMP180;9970;-36.854;174.870;2023-08-01T04:26:27;101371.00;;;15.60
19644;BMP180;9970;-36.854;174.870;2023-08-01T04:29:00;101369.00;;;15.60
19644;BMP180;9970;-36.854;174.870;2023-08-01T04:31:33;101374.00;;;15.60
19644;BMP180;9970;-36.854;174.870;2023-08-01T04:34:09;101368.00;;;15.60
19644;BMP180;9970;-36.854;174.870;2023-08-01T04:36:43;101369.00;;;15.60
19644;BMP180;9970;-36.854;174.870;2023-08-01T04:39:15;101369.00;;;15.50
19644;BMP180;9970;-36.854;174.870;2023-08-01T04:41:48;101374.00;;;15.50
19644;BMP180;9970;-36.854;174.870;2023-08-01T04:44:24;101380.00;;;15.50
19644;BMP180;9970;-36.854;174.870;2023-08-01T04:46:57;101369.00;;;15.50
19644;BMP180;9970;-36.854;174.870;2023-08-01T04:49:30;101377.00;;;15.50
19644;BMP180;9970;-36.854;174.870;2023-08-01T04:52:03;101377.00;;;15.50
19644;BMP180;9970;-36.854;174.870;2023-08-01T04:54:36;101382.00;;;15.50
19644;BMP180;9970;-36.854;174.870;2023-08-01T04:57:10;101379.00;;;15.40
19644;BMP180;9970;-36.854;174.870;2023-08-01T04:59:42;101381.00;;;15.40
19644;BMP180;9970;-36.854;174.870;2023-08-01T05:02:16;101380.00;;;15.40
19644;BMP180;9970;-36.854;174.870;2023-08-01T05:04:49;101377.00;;;15.40
19644;BMP180;9970;-36.854;174.870;2023-08-01T05:07:22;101367.00;;;15.40
19644;BMP180;9970;-36.854;174.870;2023-08-01T05:09:55;101373.00;;;15.40
19644;BMP180;9970;-36.854;174.870;2023-08-01T05:12:28;101367.00;;;15.40
19644;BMP180;9970;-36.854;174.870;2023-08-01T05:15:01;101365.00;;;15.40
19644;BMP180;9970;-36.854;174.870;2023-08-01T05:17:35;101364.00;;;15.40
19644;BMP180;9970;-36.854;174.870;2023-08-01T05:20:08;101370.00;;;15.40
19644;BMP180;9970;-36.854;174.870;2023-08-01T05:22:41;101360.00;;;15.40
19644;BMP180;9970;-36.854;174.870;2023-08-01T05:25:14;101360.00;;;15.40
19644;BMP180;9970;-36.854;174.870;2023-08-01T05:27:47;101351.00;;;15.40
19644;BMP180;9970;-36.854;174.870;2023-08-01T05:30:20;101351.00;;;15.40
19644;BMP180;9970;-36.854;174.870;2023-08-01T05:32:53;101348.00;;;15.40
19644;BMP180;9970;-36.854;174.870;2023-08-01T05:35:27;101352.00;;;15.30
19644;BMP180;9970;-36.854;174.870;2023-08-01T05:38:00;101356.00;;;15.30
19644;BMP180;9970;-36.854;174.870;2023-08-01T05:40:33;101357.00;;;15.30
19644;BMP180;9970;-36.854;174.870;2023-08-01T05:43:06;101345.00;;;15.30
19644;BMP180;9970;-36.854;174.870;2023-08-01T05:45:39;101350.00;;;15.30
19644;BMP180;9970;-36.854;174.870;2023-08-01T05:48:12;101359.00;;;15.30
19644;BMP180;9970;-36.854;174.870;2023-08-01T05:50:45;101363.00;;;15.20
19644;BMP180;9970;-36.854;174.870;2023-08-01T05:53:18;101359.00;;;15.20
19644;BMP180;9970;-36.854;174.870;2023-08-01T05:55:51;101348.00;;;15.20
19644;BMP180;9970;-36.854;174.870;2023-08-01T05:58:24;101358.00;;;15.20
19644;BMP180;9970;-36.854;174.870;2023-08-01T06:00:58;101351.00;;;15.20
19644;BMP180;9970;-36.854;174.870;2023-08-01T06:03:31;101349.00;;;15.20
19644;BMP180;9970;-36.854;174.870;2023-08-01T06:06:04;101348.00;;;15.10
19644;BMP180;9970;-36.854;174.870;2023-08-01T06:08:37;101343.00;;;15.10
19644;BMP180;9970;-36.854;174.870;2023-08-01T06:11:10;101356.00;;;15.10
19644;BMP180;9970;-36.854;174.870;2023-08-01T06:13:43;101358.00;;;15.10
19644;BMP180;9970;-36.854;174.870;2023-08-01T06:16:16;101358.00;;;15.10
19644;BMP180;9970;-36.854;174.870;2023-08-01T06:18:49;101362.00;;;15.10
19644;BMP180;9970;-36.854;174.870;2023-08-01T06:21:22;101349.00;;;15.10
19644;BMP180;9970;-36.854;174.870;2023-08-01T06:23:55;101359.00;;;15.10
19644;BMP180;9970;-36.854;174.870;2023-08-01T06:26:28;101348.00;;;15.00
19644;BMP180;9970;-36.854;174.870;2023-08-01T06:29:01;101355.00;;;15.00
19644;BMP180;9970;-36.854;174.870;2023-08-01T06:31:37;101360.00;;;15.00
19644;BMP180;9970;-36.854;174.870;2023-08-01T06:34:09;101362.00;;;15.00
19644;BMP180;9970;-36.854;174.870;2023-08-01T06:36:43;101366.00;;;15.00
19644;BMP180;9970;-36.854;174.870;2023-08-01T06:39:16;101358.00;;;15.00
19644;BMP180;9970;-36.854;174.870;2023-08-01T06:41:49;101362.00;;;15.00
19644;BMP180;9970;-36.854;174.870;2023-08-01T06:44:22;101355.00;;;15.00
19644;BMP180;9970;-36.854;174.870;2023-08-01T06:46:55;101364.00;;;14.90
19644;BMP180;9970;-36.854;174.870;2023-08-01T06:49:28;101364.00;;;14.90
19644;BMP180;9970;-36.854;174.870;2023-08-01T06:52:01;101364.00;;;15.00
19644;BMP180;9970;-36.854;174.870;2023-08-01T06:54:34;101352.00;;;14.90
19644;BMP180;9970;-36.854;174.870;2023-08-01T06:57:07;101358.00;;;14.90
19644;BMP180;9970;-36.854;174.870;2023-08-01T06:59:45;101345.00;;;14.90
19644;BMP180;9970;-36.854;174.870;2023-08-01T07:02:18;101351.00;;;14.90
19644;BMP180;9970;-36.854;174.870;2023-08-01T07:04:51;101360.00;;;14.90
19644;BMP180;9970;-36.854;174.870;2023-08-01T07:07:24;101358.00;;;14.90
19644;BMP180;9970;-36.854;174.870;2023-08-01T07:09:58;101349.00;;;14.90
19644;BMP180;9970;-36.854;174.870;2023-08-01T07:12:30;101360.00;;;14.90
19644;BMP180;9970;-36.854;174.870;2023-08-01T07:15:04;101355.00;;;14.90
19644;BMP180;9970;-36.854;174.870;2023-08-01T07:17:37;101343.00;;;14.90
19644;BMP180;9970;-36.854;174.870;2023-08-01T07:20:11;101345.00;;;14.90
19644;BMP180;9970;-36.854;174.870;2023-08-01T07:22:44;101344.00;;;14.90
19644;BMP180;9970;-36.854;174.870;2023-08-01T07:25:17;101342.00;;;14.80
19644;BMP180;9970;-36.854;174.870;2023-08-01T07:27:51;101339.00;;;14.80
19644;BMP180;9970;-36.854;174.870;2023-08-01T07:30:24;101336.00;;;14.80
19644;BMP180;9970;-36.854;174.870;2023-08-01T07:32:57;101328.00;;;14.80
19644;BMP180;9970;-36.854;174.870;2023-08-01T07:35:30;101340.00;;;14.80
19644;BMP180;9970;-36.854;174.870;2023-08-01T07:38:03;101332.00;;;14.80
19644;BMP180;9970;-36.854;174.870;2023-08-01T07:40:37;101341.00;;;14.80
19644;BMP180;9970;-36.854;174.870;2023-08-01T07:43:10;101329.00;;;14.80
19644;BMP180;9970;-36.854;174.870;2023-08-01T07:45:43;101328.00;;;14.80
19644;BMP180;9970;-36.854;174.870;2023-08-01T07:48:18;101322.00;;;14.80
19644;BMP180;9970;-36.854;174.870;2023-08-01T07:50:51;101319.00;;;14.80
19644;BMP180;9970;-36.854;174.870;2023-08-01T07:53:24;101321.00;;;14.80
19644;BMP180;9970;-36.854;174.870;2023-08-01T07:55:57;101310.00;;;14.80
19644;BMP180;9970;-36.854;174.870;2023-08-01T07:58:29;101328.00;;;14.80
19644;BMP180;9970;-36.854;174.870;2023-08-01T08:01:06;101329.00;;;14.80
19644;BMP180;9970;-36.854;174.870;2023-08-01T08:03:39;101327.00;;;14.80
19644;BMP180;9970;-36.854;174.870;2023-08-01T08:06:12;101318.00;;;14.80
19644;BMP180;9970;-36.854;174.870;2023-08-01T08:08:45;101324.00;;;14.70
19644;BMP180;9970;-36.854;174.870;2023-08-01T08:11:18;101319.00;;;14.70
19644;BMP180;9970;-36.854;174.870;2023-08-01T08:13:51;101311.00;;;14.80
19644;BMP180;9970;-36.854;174.870;2023-08-01T08:16:24;101322.00;;;14.80
19644;BMP180;9970;-36.854;174.870;2023-08-01T08:18:57;101309.00;;;14.70
19644;BMP180;9970;-36.854;174.870;2023-08-01T08:21:30;101303.00;;;14.70
19644;BMP180;9970;-36.854;174.870;2023-08-01T08:24:03;101285.00;;;14.70
19644;BMP180;9970;-36.854;174.870;2023-08-01T08:26:36;101290.00;;;14.70
19644;BMP180;9970;-36.854;174.870;2023-08-01T08:29:11;101283.00;;;14.70
19644;BMP180;9970;-36.854;174.870;2023-08-01T08:31:44;101280.00;;;14.70
19644;BMP180;9970;-36.854;174.870;2023-08-01T08:34:17;101267.00;;;14.70
19644;BMP180;9970;-36.854;174.870;2023-08-01T08:36:51;101274.00;;;14.70
19644;BMP180;9970;-36.854;174.870;2023-08-01T08:39:24;101283.00;;;14.70
19644;BMP180;9970;-36.854;174.870;2023-08-01T08:41:57;101287.00;;;14.60
19644;BMP180;9970;-36.854;174.870;2023-08-01T08:44:32;101297.00;;;14.60
19644;BMP180;9970;-36.854;174.870;2023-08-01T08:47:07;101308.00;;;14.60
19644;BMP180;9970;-36.854;174.870;2023-08-01T08:49:41;101300.00;;;14.60
19644;BMP180;9970;-36.854;174.870;2023-08-01T08:52:15;101304.00;;;14.60
19644;BMP180;9970;-36.854;174.870;2023-08-01T08:54:49;101300.00;;;14.60
19644;BMP180;9970;-36.854;174.870;2023-08-01T08:57:22;101304.00;;;14.60
19644;BMP180;9970;-36.854;174.870;2023-08-01T08:59:57;101297.00;;;14.60
19644;BMP180;9970;-36.854;174.870;2023-08-01T09:02:32;101297.00;;;14.60
19644;BMP180;9970;-36.854;174.870;2023-08-01T09:05:05;101291.00;;;14.60
19644;BMP180;9970;-36.854;174.870;2023-08-01T09:07:42;101290.00;;;14.60
19644;BMP180;9970;-36.854;174.870;2023-08-01T09:10:14;101294.00;;;14.60
19644;BMP180;9970;-36.854;174.870;2023-08-01T09:12:47;101292.00;;;14.60
19644;BMP180;9970;-36.854;174.870;2023-08-01T09:15:20;101284.00;;;14.50
19644;BMP180;9970;-36.854;174.870;2023-08-01T09:17:53;101291.00;;;14.50
19644;BMP180;9970;-36.854;174.870;2023-08-01T09:20:28;101296.00;;;14.50
19644;BMP180;9970;-36.854;174.870;2023-08-01T09:23:02;101307.00;;;14.50
19644;BMP180;9970;-36.854;174.870;2023-08-01T09:25:37;101304.00;;;14.50
19644;BMP180;9970;-36.854;174.870;2023-08-01T09:28:18;101306.00;;;14.40
19644;BMP180;9970;-36.854;174.870;2023-08-01T09:30:53;101297.00;;;14.50
19644;BMP180;9970;-36.854;174.870;2023-08-01T09:33:36;101296.00;;;14.50
19644;BMP180;9970;-36.854;174.870;2023-08-01T09:36:01;101294.00;;;14.50
19644;BMP180;9970;-36.854;174.870;2023-08-01T09:38:36;101301.00;;;14.50
19644;BMP180;9970;-36.854;174.870;2023-08-01T09:41:16;101302.00;;;14.40
19644;BMP180;9970;-36.854;174.870;2023-08-01T09:43:46;101294.00;;;14.50
19644;BMP180;9970;-36.854;174.870;2023-08-01T09:46:19;101298.00;;;14.40
19644;BMP180;9970;-36.854;174.870;2023-08-01T09:48:55;101297.00;;;14.40
19644;BMP180;9970;-36.854;174.870;2023-08-01T09:51:28;101300.00;;;14.40
19644;BMP180;9970;-36.854;174.870;2023-08-01T09:54:01;101294.00;;;14.40
19644;BMP180;9970;-36.854;174.870;2023-08-01T09:56:34;101296.00;;;14.40
19644;BMP180;9970;-36.854;174.870;2023-08-01T09:59:08;101298.00;;;14.40
19644;BMP180;9970;-36.854;174.870;2023-08-01T10:01:42;101306.00;;;14.40
19644;BMP180;9970;-36.854;174.870;2023-08-01T10:04:18;101298.00;;;14.40
19644;BMP180;9970;-36.854;174.870;2023-08-01T10:06:57;101290.00;;;14.40
19644;BMP180;9970;-36.854;174.870;2023-08-01T10:09:26;101291.00;;;14.40
19644;BMP180;9970;-36.854;174.870;2023-08-01T10:11:59;101282.00;;;14.40
19644;BMP180;9970;-36.854;174.870;2023-08-01T10:14:33;101281.00;;;14.40
19644;BMP180;9970;-36.854;174.870;2023-08-01T10:17:07;101284.00;;;14.40
19644;BMP180;9970;-36.854;174.870;2023-08-01T10:19:41;101278.00;;;14.40
19644;BMP180;9970;-36.854;174.870;2023-08-01T10:22:15;101280.00;;;14.40
19644;BMP180;9970;-36.854;174.870;2023-08-01T10:24:53;101280.00;;;14.40
19644;BMP180;9970;-36.854;174.870;2023-08-01T10:27:26;101273.00;;;14.40
19644;BMP180;9970;-36.854;174.870;2023-08-01T10:30:00;101272.00;;;14.40
19644;BMP180;9970;-36.854;174.870;2023-08-01T10:32:34;101275.00;;;14.40
19644;BMP180;9970;-36.854;174.870;2023-08-01T10:35:08;101275.00;;;14.40
19644;BMP180;9970;-36.854;174.870;2023-08-01T10:37:45;101279.00;;;14.40
19644;BMP180;9970;-36.854;174.870;2023-08-01T10:40:19;101278.00;;;14.40
19644;BMP180;9970;-36.854;174.870;2023-08-01T10:42:52;101280.00;;;14.40
19644;BMP180;9970;-36.854;174.870;2023-08-01T10:45:25;101276.00;;;14.40
19644;BMP180;9970;-36.854;174.870;2023-08-01T10:48:10;101264.00;;;14.40
19644;BMP180;9970;-36.854;174.870;2023-08-01T10:50:53;101260.00;;;14.40
19644;BMP180;9970;-36.854;174.870;2023-08-01T10:53:17;101262.00;;;14.40
19644;BMP180;9970;-36.854;174.870;2023-08-01T10:55:50;101260.00;;;14.40
19644;BMP180;9970;-36.854;174.870;2023-08-01T10:58:30;101253.00;;;14.40
19644;BMP180;9970;-36.854;174.870;2023-08-01T11:01:07;101247.00;;;14.50
19644;BMP180;9970;-36.854;174.870;2023-08-01T11:03:40;101257.00;;;14.40
19644;BMP180;9970;-36.854;174.870;2023-08-01T11:06:14;101243.00;;;14.40
19644;BMP180;9970;-36.854;174.870;2023-08-01T11:08:47;101247.00;;;14.40
19644;BMP180;9970;-36.854;174.870;2023-08-01T11:11:20;101232.00;;;14.40
19644;BMP180;9970;-36.854;174.870;2023-08-01T11:13:53;101240.00;;;14.40
19644;BMP180;9970;-36.854;174.870;2023-08-01T11:16:27;101241.00;;;14.40
19644;BMP180;9970;-36.854;174.870;2023-08-01T11:19:00;101222.00;;;14.40
19644;BMP180;9970;-36.854;174.870;2023-08-01T11:21:33;101224.00;;;14.40
19644;BMP180;9970;-36.854;174.870;2023-08-01T11:24:10;101218.00;;;14.40
19644;BMP180;9970;-36.854;174.870;2023-08-01T11:26:44;101214.00;;;14.40
19644;BMP180;9970;-36.854;174.870;2023-08-01T11:29:18;101202.00;;;14.40
19644;BMP180;9970;-36.854;174.870;2023-08-01T11:31:55;101209.00;;;14.40
19644;BMP180;9970;-36.854;174.870;2023-08-01T11:34:28;101201.00;;;14.40
19644;BMP180;9970;-36.854;174.870;2023-08-01T11:37:03;101203.00;;;14.40
19644;BMP180;9970;-36.854;174.870;2023-08-01T11:39:36;101192.00;;;14.40
19644;BMP180;9970;-36.854;174.870;2023-08-01T11:42:16;101194.00;;;14.40
19644;BMP180;9970;-36.854;174.870;2023-08-01T11:44:49;101192.00;;;14.40
19644;BMP180;9970;-36.854;174.870;2023-08-01T11:47:22;101179.00;;;14.40
19644;BMP180;9970;-36.854;174.870;2023-08-01T11:49:55;101175.00;;;14.40
19644;BMP180;9970;-36.854;174.870;2023-08-01T11:52:29;101179.00;;;14.40
19644;BMP180;9970;-36.854;174.870;2023-08-01T11:55:02;101178.00;;;14.40
19644;BMP180;9970;-36.854;174.870;2023-08-01T11:57:36;101171.00;;;14.40
19644;BMP180;9970;-36.854;174.870;2023-08-01T12:00:10;101150.00;;;14.40
19644;BMP180;9970;-36.854;174.870;2023-08-01T12:02:44;101150.00;;;14.40
19644;BMP180;9970;-36.854;174.870;2023-08-01T12:05:26;101147.00;;;14.40
19644;BMP180;9970;-36.854;174.870;2023-08-01T12:08:13;101148.00;;;14.40
19644;BMP180;9970;-36.854;174.870;2023-08-01T12:10:46;101139.00;;;14.40
19644;BMP180;9970;-36.854;174.870;2023-08-01T12:13:23;101146.00;;;14.40
19644;BMP180;9970;-36.854;174.870;2023-08-01T12:15:56;101132.00;;;14.40
19644;BMP180;9970;-36.854;174.870;2023-08-01T12:18:30;101135.00;;;14.40
19644;BMP180;9970;-36.854;174.870;2023-08-01T12:21:04;101129.00;;;14.40
19644;BMP180;9970;-36.854;174.870;2023-08-01T12:23:37;101127.00;;;14.40
19644;BMP180;9970;-36.854;174.870;2023-08-01T12:26:11;101117.00;;;14.40
19644;BMP180;9970;-36.854;174.870;2023-08-01T12:28:43;101117.00;;;14.40
19644;BMP180;9970;-36.854;174.870;2023-08-01T12:31:21;101108.00;;;14.40
19644;BMP180;9970;-36.854;174.870;2023-08-01T12:33:54;101100.00;;;14.40
19644;BMP180;9970;-36.854;174.870;2023-08-01T12:36:28;101105.00;;;14.40
19644;BMP180;9970;-36.854;174.870;2023-08-01T12:39:01;101107.00;;;14.40
19644;BMP180;9970;-36.854;174.870;2023-08-01T12:41:35;101101.00;;;14.40
19644;BMP180;9970;-36.854;174.870;2023-08-01T12:44:08;101105.00;;;14.40
19644;BMP180;9970;-36.854;174.870;2023-08-01T12:46:42;101092.00;;;14.40
19644;BMP180;9970;-36.854;174.870;2023-08-01T12:49:14;101090.00;;;14.40
19644;BMP180;9970;-36.854;174.870;2023-08-01T12:51:48;101087.00;;;14.40
19644;BMP180;9970;-36.854;174.870;2023-08-01T12:54:21;101082.00;;;14.40
19644;BMP180;9970;-36.854;174.870;2023-08-01T12:56:58;101082.00;;;14.40
19644;BMP180;9970;-36.854;174.870;2023-08-01T12:59:31;101084.00;;;14.40
19644;BMP180;9970;-36.854;174.870;2023-08-01T13:02:04;101071.00;;;14.30
19644;BMP180;9970;-36.854;174.870;2023-08-01T13:04:39;101068.00;;;14.40
19644;BMP180;9970;-36.854;174.870;2023-08-01T13:07:12;101066.00;;;14.30
19644;BMP180;9970;-36.854;174.870;2023-08-01T13:09:45;101059.00;;;14.30
19644;BMP180;9970;-36.854;174.870;2023-08-01T13:12:18;101065.00;;;14.30
19644;BMP180;9970;-36.854;174.870;2023-08-01T13:14:51;101046.00;;;14.30
19644;BMP180;9970;-36.854;174.870;2023-08-01T13:17:25;101045.00;;;14.30
19644;BMP180;9970;-36.854;174.870;2023-08-01T13:19:58;101044.00;;;14.30
19644;BMP180;9970;-36.854;174.870;2023-08-01T13:22:31;101049.00;;;14.30
19644;BMP180;9970;-36.854;174.870;2023-08-01T13:25:04;101046.00;;;14.30
19644;BMP180;9970;-36.854;174.870;2023-08-01T13:27:37;101042.00;;;14.30
19644;BMP180;9970;-36.854;174.870;2023-08-01T13:30:10;101046.00;;;14.30
19644;BMP180;9970;-36.854;174.870;2023-08-01T13:32:44;101046.00;;;14.30
19644;BMP180;9970;-36.854;174.870;2023-08-01T13:35:22;101045.00;;;14.30
19644;BMP180;9970;-36.854;174.870;2023-08-01T13:37:55;101038.00;;;14.30
19644;BMP180;9970;-36.854;174.870;2023-08-01T13:40:28;101032.00;;;14.30
19644;BMP180;9970;-36.854;174.870;2023-08-01T13:43:02;101037.00;;;14.30
19644;BMP180;9970;-36.854;174.870;2023-08-01T13:45:35;101043.00;;;14.30
19644;BMP180;9970;-36.854;174.870;2023-08-01T13:48:08;101038.00;;;14.30
19644;BMP180;9970;-36.854;174.870;2023-08-01T13:50:41;101032.00;;;14.30
19644;BMP180;9970;-36.854;174.870;2023-08-01T13:53:14;101035.00;;;14.30
19644;BMP180;9970;-36.854;174.870;2023-08-01T13:55:48;101023.00;;;14.30
19644;BMP180;9970;-36.854;174.870;2023-08-01T13:58:21;101028.00;;;14.30
19644;BMP180;9970;-36.854;174.870;2023-08-01T14:00:54;101023.00;;;14.30
19644;BMP180;9970;-36.854;174.870;2023-08-01T14:03:27;101022.00;;;14.30
19644;BMP180;9970;-36.854;174.870;2023-08-01T14:06:11;101020.00;;;14.30
19644;BMP180;9970;-36.854;174.870;2023-08-01T14:08:44;101015.00;;;14.30
19644;BMP180;9970;-36.854;174.870;2023-08-01T14:11:18;101012.00;;;14.30